sensor_id;sensor_type;location;lat;lon;timestamp;P1;durP1;ratioP1;P2;durP2;ratioP2
5684;SDS011;2865;53.114;9.130;2022-07-23T00:01:59;4.03;;;2.83;;
5684;SDS011;2865;53.114;9.130;2022-07-23T00:04:24;6.63;;;3.10;;
5684;SDS011;2865;53.114;9.130;2022-07-23T00:06:49;6.87;;;2.83;;
5684;SDS011;2865;53.114;9.130;2022-07-23T00:09:15;7.80;;;3.27;;
5684;SDS011;2865;53.114;9.130;2022-07-23T00:11:40;3.70;;;3.27;;
5684;SDS011;2865;53.114;9.130;2022-07-23T00:14:05;4.57;;;3.00;;
5684;SDS011;2865;53.114;9.130;2022-07-23T00:16:31;4.00;;;2.80;;
5684;SDS011;2865;53.114;9.130;2022-07-23T00:18:56;3.40;;;3.00;;
5684;SDS011;2865;53.114;9.130;2022-07-23T00:21:22;3.27;;;2.90;;
5684;SDS011;2865;53.114;9.130;2022-07-23T00:23:47;4.47;;;2.93;;
5684;SDS011;2865;53.114;9.130;2022-07-23T00:26:12;5.03;;;3.30;;
5684;SDS011;2865;53.114;9.130;2022-07-23T00:28:37;2.37;;;2.17;;
5684;SDS011;2865;53.114;9.130;2022-07-23T00:31:03;3.60;;;2.60;;
5684;SDS011;2865;53.114;9.130;2022-07-23T00:33:28;3.07;;;2.53;;
5684;SDS011;2865;53.114;9.130;2022-07-23T00:35:54;7.77;;;2.93;;
5684;SDS011;2865;53.114;9.130;2022-07-23T00:38:19;6.53;;;2.93;;
5684;SDS011;2865;53.114;9.130;2022-07-23T00:40:44;3.80;;;2.70;;
5684;SDS011;2865;53.114;9.130;2022-07-23T00:43:09;10.80;;;3.57;;
5684;SDS011;2865;53.114;9.130;2022-07-23T00:45:35;4.97;;;3.10;;
5684;SDS011;2865;53.114;9.130;2022-07-23T00:48:01;4.90;;;2.47;;
5684;SDS011;2865;53.114;9.130;2022-07-23T00:50:26;2.73;;;2.50;;
5684;SDS011;2865;53.114;9.130;2022-07-23T00:52:51;3.80;;;3.17;;
5684;SDS011;2865;53.114;9.130;2022-07-23T00:55:17;7.30;;;3.60;;
5684;SDS011;2865;53.114;9.130;2022-07-23T00:57:42;3.63;;;3.33;;
5684;SDS011;2865;53.114;9.130;2022-07-23T01:00:08;5.80;;;3.63;;
5684;SDS011;2865;53.114;9.130;2022-07-23T01:02:34;14.50;;;4.13;;
5684;SDS011;2865;53.114;9.130;2022-07-23T01:04:59;5.03;;;3.50;;
5684;SDS011;2865;53.114;9.130;2022-07-23T01:07:24;4.00;;;3.60;;
5684;SDS011;2865;53.114;9.130;2022-07-23T01:09:50;3.23;;;3.00;;
5684;SDS011;2865;53.114;9.130;2022-07-23T01:12:15;3.67;;;3.37;;
5684;SDS011;2865;53.114;9.130;2022-07-23T01:14:40;8.80;;;3.00;;
5684;SDS011;2865;53.114;9.130;2022-07-23T01:17:06;3.40;;;3.00;;
5684;SDS011;2865;53.114;9.130;2022-07-23T01:19:31;3.90;;;3.60;;
5684;SDS011;2865;53.114;9.130;2022-07-23T01:21:57;2.70;;;2.50;;
5684;SDS011;2865;53.114;9.130;2022-07-23T01:24:22;2.40;;;2.20;;
5684;SDS011;2865;53.114;9.130;2022-07-23T01:26:48;4.87;;;2.80;;
5684;SDS011;2865;53.114;9.130;2022-07-23T01:29:13;5.17;;;2.83;;
5684;SDS011;2865;53.114;9.130;2022-07-23T01:31:39;2.97;;;2.77;;
5684;SDS011;2865;53.114;9.130;2022-07-23T01:34:04;3.63;;;3.17;;
5684;SDS011;2865;53.114;9.130;2022-07-23T01:36:30;3.23;;;2.93;;
5684;SDS011;2865;53.114;9.130;2022-07-23T01:38:55;6.00;;;3.60;;
5684;SDS011;2865;53.114;9.130;2022-07-23T01:41:20;6.67;;;4.17;;
5684;SDS011;2865;53.114;9.130;2022-07-23T01:43:46;7.03;;;3.50;;
5684;SDS011;2865;53.114;9.130;2022-07-23T01:46:11;3.00;;;2.77;;
5684;SDS011;2865;53.114;9.130;2022-07-23T01:48:36;6.23;;;3.63;;
5684;SDS011;2865;53.114;9.130;2022-07-23T01:51:02;8.63;;;3.40;;
5684;SDS011;2865;53.114;9.130;2022-07-23T01:53:27;3.73;;;3.10;;
5684;SDS011;2865;53.114;9.130;2022-07-23T01:55:53;3.77;;;3.33;;
5684;SDS011;2865;53.114;9.130;2022-07-23T01:58:18;4.40;;;3.10;;
5684;SDS011;2865;53.114;9.130;2022-07-23T02:00:44;2.57;;;2.40;;
5684;SDS011;2865;53.114;9.130;2022-07-23T02:03:09;2.83;;;2.53;;
5684;SDS011;2865;53.114;9.130;2022-07-23T02:05:35;2.57;;;2.37;;
5684;SDS011;2865;53.114;9.130;2022-07-23T02:08:00;2.40;;;2.23;;
5684;SDS011;2865;53.114;9.130;2022-07-23T02:10:26;2.80;;;2.40;;
5684;SDS011;2865;53.114;9.130;2022-07-23T02:12:51;3.70;;;2.60;;
5684;SDS011;2865;53.114;9.130;2022-07-23T02:15:16;2.40;;;2.30;;
5684;SDS011;2865;53.114;9.130;2022-07-23T02:17:42;2.80;;;2.60;;
5684;SDS011;2865;53.114;9.130;2022-07-23T02:20:08;3.20;;;2.90;;
5684;SDS011;2865;53.114;9.130;2022-07-23T02:22:34;3.30;;;3.10;;
5684;SDS011;2865;53.114;9.130;2022-07-23T02:24:59;3.33;;;3.03;;
5684;SDS011;2865;53.114;9.130;2022-07-23T02:27:25;5.07;;;3.30;;
5684;SDS011;2865;53.114;9.130;2022-07-23T02:29:50;4.23;;;3.90;;
5684;SDS011;2865;53.114;9.130;2022-07-23T02:32:16;4.53;;;3.80;;
5684;SDS011;2865;53.114;9.130;2022-07-23T02:34:41;5.17;;;4.77;;
5684;SDS011;2865;53.114;9.130;2022-07-23T02:37:07;4.67;;;4.10;;
5684;SDS011;2865;53.114;9.130;2022-07-23T02:39:32;4.40;;;3.97;;
5684;SDS011;2865;53.114;9.130;2022-07-23T02:41:57;7.27;;;4.97;;
5684;SDS011;2865;53.114;9.130;2022-07-23T02:44:23;5.27;;;4.77;;
5684;SDS011;2865;53.114;9.130;2022-07-23T02:46:48;5.00;;;4.10;;
5684;SDS011;2865;53.114;9.130;2022-07-23T02:49:14;4.93;;;4.43;;
5684;SDS011;2865;53.114;9.130;2022-07-23T02:51:39;5.53;;;4.47;;
5684;SDS011;2865;53.114;9.130;2022-07-23T02:54:04;6.73;;;5.73;;
5684;SDS011;2865;53.114;9.130;2022-07-23T02:56:30;5.57;;;5.10;;
5684;SDS011;2865;53.114;9.130;2022-07-23T02:58:55;6.90;;;5.30;;
5684;SDS011;2865;53.114;9.130;2022-07-23T03:01:20;8.13;;;5.33;;
5684;SDS011;2865;53.114;9.130;2022-07-23T03:03:46;7.33;;;5.00;;
5684;SDS011;2865;53.114;9.130;2022-07-23T03:06:11;7.97;;;3.80;;
5684;SDS011;2865;53.114;9.130;2022-07-23T03:08:36;4.47;;;4.07;;
5684;SDS011;2865;53.114;9.130;2022-07-23T03:11:02;5.57;;;4.57;;
5684;SDS011;2865;53.114;9.130;2022-07-23T03:13:27;4.83;;;3.80;;
5684;SDS011;2865;53.114;9.130;2022-07-23T03:15:52;5.97;;;3.80;;
5684;SDS011;2865;53.114;9.130;2022-07-23T03:18:18;6.60;;;4.60;;
5684;SDS011;2865;53.114;9.130;2022-07-23T03:20:43;8.60;;;4.00;;
5684;SDS011;2865;53.114;9.130;2022-07-23T03:23:09;4.13;;;3.73;;
5684;SDS011;2865;53.114;9.130;2022-07-23T03:25:34;8.00;;;5.37;;
5684;SDS011;2865;53.114;9.130;2022-07-23T03:27:59;5.13;;;4.50;;
5684;SDS011;2865;53.114;9.130;2022-07-23T03:30:26;5.33;;;4.80;;
5684;SDS011;2865;53.114;9.130;2022-07-23T03:32:51;10.20;;;5.67;;
5684;SDS011;2865;53.114;9.130;2022-07-23T03:35:16;5.83;;;4.87;;
5684;SDS011;2865;53.114;9.130;2022-07-23T03:37:42;5.77;;;5.27;;
5684;SDS011;2865;53.114;9.130;2022-07-23T03:40:07;4.73;;;4.30;;
5684;SDS011;2865;53.114;9.130;2022-07-23T03:42:33;6.10;;;5.30;;
5684;SDS011;2865;53.114;9.130;2022-07-23T03:44:58;6.40;;;4.27;;
5684;SDS011;2865;53.114;9.130;2022-07-23T03:47:23;4.50;;;4.10;;
5684;SDS011;2865;53.114;9.130;2022-07-23T03:49:49;5.00;;;4.30;;
5684;SDS011;2865;53.114;9.130;2022-07-23T03:52:14;7.63;;;4.60;;
5684;SDS011;2865;53.114;9.130;2022-07-23T03:54:40;5.07;;;4.57;;
5684;SDS011;2865;53.114;9.130;2022-07-23T03:57:05;4.13;;;3.73;;
5684;SDS011;2865;53.114;9.130;2022-07-23T03:59:30;7.20;;;5.00;;
5684;SDS011;2865;53.114;9.130;2022-07-23T04:01:56;4.40;;;4.00;;
5684;SDS011;2865;53.114;9.130;2022-07-23T04:04:21;4.33;;;3.93;;
5684;SDS011;2865;53.114;9.130;2022-07-23T04:06:46;6.20;;;4.10;;
5684;SDS011;2865;53.114;9.130;2022-07-23T04:09:11;5.53;;;4.07;;
5684;SDS011;2865;53.114;9.130;2022-07-23T04:11:37;5.17;;;3.80;;
5684;SDS011;2865;53.114;9.130;2022-07-23T04:14:02;4.00;;;3.70;;
5684;SDS011;2865;53.114;9.130;2022-07-23T04:16:27;3.60;;;3.30;;
5684;SDS011;2865;53.114;9.130;2022-07-23T04:18:53;4.13;;;3.73;;
5684;SDS011;2865;53.114;9.130;2022-07-23T04:21:18;4.43;;;3.93;;
5684;SDS011;2865;53.114;9.130;2022-07-23T04:23:43;3.63;;;3.40;;
5684;SDS011;2865;53.114;9.130;2022-07-23T04:26:09;4.77;;;4.10;;
5684;SDS011;2865;53.114;9.130;2022-07-23T04:28:34;4.90;;;4.40;;
5684;SDS011;2865;53.114;9.130;2022-07-23T04:30:59;3.30;;;3.00;;
5684;SDS011;2865;53.114;9.130;2022-07-23T04:33:24;4.00;;;3.70;;
5684;SDS011;2865;53.114;9.130;2022-07-23T04:35:50;3.97;;;3.57;;
5684;SDS011;2865;53.114;9.130;2022-07-23T04:38:15;3.67;;;3.37;;
5684;SDS011;2865;53.114;9.130;2022-07-23T04:40:40;3.50;;;3.30;;
5684;SDS011;2865;53.114;9.130;2022-07-23T04:43:06;5.27;;;3.73;;
5684;SDS011;2865;53.114;9.130;2022-07-23T04:45:31;5.20;;;4.67;;
5684;SDS011;2865;53.114;9.130;2022-07-23T04:47:56;3.57;;;3.30;;
5684;SDS011;2865;53.114;9.130;2022-07-23T04:50:21;9.03;;;3.80;;
5684;SDS011;2865;53.114;9.130;2022-07-23T04:52:47;5.10;;;4.23;;
5684;SDS011;2865;53.114;9.130;2022-07-23T04:55:12;3.90;;;3.60;;
5684;SDS011;2865;53.114;9.130;2022-07-23T04:57:37;4.40;;;4.10;;
5684;SDS011;2865;53.114;9.130;2022-07-23T05:00:03;5.10;;;4.20;;
5684;SDS011;2865;53.114;9.130;2022-07-23T05:02:29;4.83;;;4.40;;
5684;SDS011;2865;53.114;9.130;2022-07-23T05:04:54;4.97;;;4.47;;
5684;SDS011;2865;53.114;9.130;2022-07-23T05:07:19;6.57;;;4.87;;
5684;SDS011;2865;53.114;9.130;2022-07-23T05:09:45;4.60;;;3.80;;
5684;SDS011;2865;53.114;9.130;2022-07-23T05:12:10;6.23;;;4.60;;
5684;SDS011;2865;53.114;9.130;2022-07-23T05:14:35;4.70;;;4.23;;
5684;SDS011;2865;53.114;9.130;2022-07-23T05:17:00;6.77;;;4.10;;
5684;SDS011;2865;53.114;9.130;2022-07-23T05:19:26;4.60;;;4.20;;
5684;SDS011;2865;53.114;9.130;2022-07-23T05:21:51;6.20;;;4.50;;
5684;SDS011;2865;53.114;9.130;2022-07-23T05:24:17;11.50;;;5.37;;
5684;SDS011;2865;53.114;9.130;2022-07-23T05:26:42;6.43;;;5.80;;
5684;SDS011;2865;53.114;9.130;2022-07-23T05:29:07;9.83;;;5.70;;
5684;SDS011;2865;53.114;9.130;2022-07-23T05:31:33;6.77;;;5.87;;
5684;SDS011;2865;53.114;9.130;2022-07-23T05:33:58;6.10;;;5.00;;
5684;SDS011;2865;53.114;9.130;2022-07-23T05:36:23;7.93;;;5.60;;
5684;SDS011;2865;53.114;9.130;2022-07-23T05:38:48;7.80;;;5.70;;
5684;SDS011;2865;53.114;9.130;2022-07-23T05:41:14;8.37;;;5.57;;
5684;SDS011;2865;53.114;9.130;2022-07-23T05:43:39;6.27;;;4.70;;
5684;SDS011;2865;53.114;9.130;2022-07-23T05:46:04;8.10;;;5.70;;
5684;SDS011;2865;53.114;9.130;2022-07-23T05:48:30;7.40;;;5.20;;
5684;SDS011;2865;53.114;9.130;2022-07-23T05:50:55;7.40;;;5.57;;
5684;SDS011;2865;53.114;9.130;2022-07-23T05:53:20;6.90;;;4.83;;
5684;SDS011;2865;53.114;9.130;2022-07-23T05:55:46;8.50;;;5.37;;
5684;SDS011;2865;53.114;9.130;2022-07-23T05:58:11;7.90;;;5.80;;
5684;SDS011;2865;53.114;9.130;2022-07-23T06:00:36;7.33;;;5.20;;
5684;SDS011;2865;53.114;9.130;2022-07-23T06:03:02;7.80;;;5.47;;
5684;SDS011;2865;53.114;9.130;2022-07-23T06:05:27;9.03;;;5.23;;
5684;SDS011;2865;53.114;9.130;2022-07-23T06:07:53;10.50;;;5.27;;
5684;SDS011;2865;53.114;9.130;2022-07-23T06:10:18;7.33;;;5.13;;
5684;SDS011;2865;53.114;9.130;2022-07-23T06:12:43;5.97;;;4.47;;
5684;SDS011;2865;53.114;9.130;2022-07-23T06:15:09;11.40;;;5.00;;
5684;SDS011;2865;53.114;9.130;2022-07-23T06:17:34;8.60;;;3.80;;
5684;SDS011;2865;53.114;9.130;2022-07-23T06:19:59;5.17;;;3.30;;
5684;SDS011;2865;53.114;9.130;2022-07-23T06:22:25;9.50;;;3.77;;
5684;SDS011;2865;53.114;9.130;2022-07-23T06:24:50;12.63;;;4.20;;
5684;SDS011;2865;53.114;9.130;2022-07-23T06:27:15;5.33;;;3.37;;
5684;SDS011;2865;53.114;9.130;2022-07-23T06:29:41;3.93;;;3.03;;
5684;SDS011;2865;53.114;9.130;2022-07-23T06:32:06;5.50;;;4.00;;
5684;SDS011;2865;53.114;9.130;2022-07-23T06:34:31;7.97;;;3.43;;
5684;SDS011;2865;53.114;9.130;2022-07-23T06:36:57;8.30;;;4.17;;
5684;SDS011;2865;53.114;9.130;2022-07-23T06:39:22;8.13;;;2.63;;
5684;SDS011;2865;53.114;9.130;2022-07-23T06:41:47;8.30;;;2.83;;
5684;SDS011;2865;53.114;9.130;2022-07-23T06:44:13;4.53;;;2.63;;
5684;SDS011;2865;53.114;9.130;2022-07-23T06:46:38;3.47;;;3.17;;
5684;SDS011;2865;53.114;9.130;2022-07-23T06:49:03;4.93;;;2.30;;
5684;SDS011;2865;53.114;9.130;2022-07-23T06:51:28;8.23;;;2.30;;
5684;SDS011;2865;53.114;9.130;2022-07-23T06:53:54;5.33;;;2.47;;
5684;SDS011;2865;53.114;9.130;2022-07-23T06:56:19;5.63;;;3.67;;
5684;SDS011;2865;53.114;9.130;2022-07-23T06:58:44;4.23;;;2.60;;
5684;SDS011;2865;53.114;9.130;2022-07-23T07:01:10;7.70;;;2.53;;
5684;SDS011;2865;53.114;9.130;2022-07-23T07:03:35;5.40;;;3.00;;
5684;SDS011;2865;53.114;9.130;2022-07-23T07:06:00;4.87;;;3.23;;
5684;SDS011;2865;53.114;9.130;2022-07-23T07:08:26;6.30;;;3.47;;
5684;SDS011;2865;53.114;9.130;2022-07-23T07:10:51;5.33;;;3.10;;
5684;SDS011;2865;53.114;9.130;2022-07-23T07:13:16;3.03;;;2.50;;
5684;SDS011;2865;53.114;9.130;2022-07-23T07:15:41;7.57;;;2.67;;
5684;SDS011;2865;53.114;9.130;2022-07-23T07:18:07;6.03;;;2.30;;
5684;SDS011;2865;53.114;9.130;2022-07-23T07:20:32;2.40;;;2.10;;
5684;SDS011;2865;53.114;9.130;2022-07-23T07:22:57;4.93;;;2.47;;
5684;SDS011;2865;53.114;9.130;2022-07-23T07:25:23;4.13;;;1.77;;
5684;SDS011;2865;53.114;9.130;2022-07-23T07:27:48;3.80;;;1.70;;
5684;SDS011;2865;53.114;9.130;2022-07-23T07:30:13;4.40;;;1.60;;
5684;SDS011;2865;53.114;9.130;2022-07-23T07:32:39;1.73;;;1.20;;
5684;SDS011;2865;53.114;9.130;2022-07-23T07:35:04;6.10;;;1.53;;
5684;SDS011;2865;53.114;9.130;2022-07-23T07:37:30;2.87;;;1.30;;
5684;SDS011;2865;53.114;9.130;2022-07-23T07:39:55;2.20;;;2.00;;
5684;SDS011;2865;53.114;9.130;2022-07-23T07:42:20;2.40;;;1.50;;
5684;SDS011;2865;53.114;9.130;2022-07-23T07:44:46;2.93;;;1.63;;
5684;SDS011;2865;53.114;9.130;2022-07-23T07:47:11;1.57;;;1.47;;
5684;SDS011;2865;53.114;9.130;2022-07-23T07:49:36;2.20;;;1.43;;
5684;SDS011;2865;53.114;9.130;2022-07-23T07:52:02;3.50;;;1.40;;
5684;SDS011;2865;53.114;9.130;2022-07-23T07:54:27;3.40;;;1.60;;
5684;SDS011;2865;53.114;9.130;2022-07-23T07:56:52;2.93;;;1.53;;
5684;SDS011;2865;53.114;9.130;2022-07-23T07:59:18;2.17;;;1.57;;
5684;SDS011;2865;53.114;9.130;2022-07-23T08:01:43;2.20;;;1.20;;
5684;SDS011;2865;53.114;9.130;2022-07-23T08:04:08;4.63;;;1.50;;
5684;SDS011;2865;53.114;9.130;2022-07-23T08:06:34;1.77;;;1.00;;
5684;SDS011;2865;53.114;9.130;2022-07-23T08:08:59;1.43;;;0.90;;
5684;SDS011;2865;53.114;9.130;2022-07-23T08:11:24;2.63;;;1.17;;
5684;SDS011;2865;53.114;9.130;2022-07-23T08:13:49;2.70;;;1.57;;
5684;SDS011;2865;53.114;9.130;2022-07-23T08:16:15;9.63;;;1.10;;
5684;SDS011;2865;53.114;9.130;2022-07-23T08:18:40;4.20;;;1.60;;
5684;SDS011;2865;53.114;9.130;2022-07-23T08:21:05;1.17;;;1.07;;
5684;SDS011;2865;53.114;9.130;2022-07-23T08:23:31;2.03;;;1.10;;
5684;SDS011;2865;53.114;9.130;2022-07-23T08:25:56;2.20;;;1.43;;
5684;SDS011;2865;53.114;9.130;2022-07-23T08:28:22;1.70;;;0.97;;
5684;SDS011;2865;53.114;9.130;2022-07-23T08:30:47;0.80;;;0.80;;
5684;SDS011;2865;53.114;9.130;2022-07-23T08:33:13;1.80;;;1.20;;
5684;SDS011;2865;53.114;9.130;2022-07-23T08:35:39;2.57;;;1.40;;
5684;SDS011;2865;53.114;9.130;2022-07-23T08:38:05;1.60;;;1.50;;
5684;SDS011;2865;53.114;9.130;2022-07-23T08:40:30;1.30;;;1.17;;
5684;SDS011;2865;53.114;9.130;2022-07-23T08:42:54;10.33;;;1.90;;
5684;SDS011;2865;53.114;9.130;2022-07-23T08:45:20;3.37;;;1.37;;
5684;SDS011;2865;53.114;9.130;2022-07-23T08:47:48;2.03;;;1.27;;
5684;SDS011;2865;53.114;9.130;2022-07-23T08:50:13;2.50;;;0.97;;
5684;SDS011;2865;53.114;9.130;2022-07-23T08:52:38;1.90;;;1.07;;
5684;SDS011;2865;53.114;9.130;2022-07-23T08:55:04;1.83;;;1.10;;
5684;SDS011;2865;53.114;9.130;2022-07-23T08:57:30;3.37;;;1.57;;
5684;SDS011;2865;53.114;9.130;2022-07-23T08:59:55;6.33;;;1.20;;
5684;SDS011;2865;53.114;9.130;2022-07-23T09:02:20;4.53;;;1.47;;
5684;SDS011;2865;53.114;9.130;2022-07-23T09:04:46;2.20;;;1.20;;
5684;SDS011;2865;53.114;9.130;2022-07-23T09:07:11;1.20;;;1.10;;
5684;SDS011;2865;53.114;9.130;2022-07-23T09:09:36;2.93;;;1.00;;
5684;SDS011;2865;53.114;9.130;2022-07-23T09:12:03;4.63;;;1.63;;
5684;SDS011;2865;53.114;9.130;2022-07-23T09:17:09;0.90;;;0.90;;
5684;SDS011;2865;53.114;9.130;2022-07-23T09:19:34;1.83;;;1.20;;
5684;SDS011;2865;53.114;9.130;2022-07-23T09:22:15;1.73;;;0.93;;
5684;SDS011;2865;53.114;9.130;2022-07-23T09:24:25;1.10;;;1.00;;
5684;SDS011;2865;53.114;9.130;2022-07-23T09:26:51;2.20;;;0.90;;
5684;SDS011;2865;53.114;9.130;2022-07-23T09:29:17;1.00;;;0.90;;
5684;SDS011;2865;53.114;9.130;2022-07-23T09:31:45;2.50;;;0.90;;
5684;SDS011;2865;53.114;9.130;2022-07-23T09:34:16;2.37;;;1.20;;
5684;SDS011;2865;53.114;9.130;2022-07-23T09:36:40;0.90;;;0.90;;
5684;SDS011;2865;53.114;9.130;2022-07-23T09:39:06;2.70;;;1.23;;
5684;SDS011;2865;53.114;9.130;2022-07-23T09:41:34;1.10;;;0.90;;
5684;SDS011;2865;53.114;9.130;2022-07-23T09:43:59;7.47;;;1.30;;
5684;SDS011;2865;53.114;9.130;2022-07-23T09:46:25;1.60;;;0.93;;
5684;SDS011;2865;53.114;9.130;2022-07-23T09:48:50;1.30;;;0.90;;
5684;SDS011;2865;53.114;9.130;2022-07-23T09:51:15;1.80;;;0.93;;
5684;SDS011;2865;53.114;9.130;2022-07-23T09:53:41;1.13;;;1.13;;
5684;SDS011;2865;53.114;9.130;2022-07-23T09:56:06;3.53;;;1.30;;
5684;SDS011;2865;53.114;9.130;2022-07-23T09:58:32;4.00;;;1.60;;
5684;SDS011;2865;53.114;9.130;2022-07-23T10:00:57;2.90;;;1.10;;
5684;SDS011;2865;53.114;9.130;2022-07-23T10:03:22;1.40;;;1.30;;
5684;SDS011;2865;53.114;9.130;2022-07-23T10:05:48;1.10;;;0.90;;
5684;SDS011;2865;53.114;9.130;2022-07-23T10:08:13;3.30;;;1.00;;
5684;SDS011;2865;53.114;9.130;2022-07-23T10:10:39;2.37;;;0.97;;
5684;SDS011;2865;53.114;9.130;2022-07-23T10:13:04;4.10;;;1.17;;
5684;SDS011;2865;53.114;9.130;2022-07-23T10:15:46;0.80;;;0.80;;
5684;SDS011;2865;53.114;9.130;2022-07-23T10:18:11;1.33;;;1.00;;
5684;SDS011;2865;53.114;9.130;2022-07-23T10:20:37;5.77;;;1.47;;
5684;SDS011;2865;53.114;9.130;2022-07-23T10:23:08;0.80;;;0.77;;
5684;SDS011;2865;53.114;9.130;2022-07-23T10:25:32;0.97;;;0.80;;
5684;SDS011;2865;53.114;9.130;2022-07-23T10:29:17;1.40;;;0.90;;
5684;SDS011;2865;53.114;9.130;2022-07-23T10:31:00;5.00;;;0.90;;
5684;SDS011;2865;53.114;9.130;2022-07-23T10:33:40;0.80;;;0.80;;
5684;SDS011;2865;53.114;9.130;2022-07-23T10:36:11;1.70;;;0.80;;
5684;SDS011;2865;53.114;9.130;2022-07-23T10:38:48;1.83;;;0.90;;
5684;SDS011;2865;53.114;9.130;2022-07-23T10:41:32;0.80;;;0.80;;
5684;SDS011;2865;53.114;9.130;2022-07-23T10:46:30;1.20;;;1.20;;
5684;SDS011;2865;53.114;9.130;2022-07-23T10:51:34;1.10;;;0.93;;
5684;SDS011;2865;53.114;9.130;2022-07-23T10:54:00;0.97;;;0.87;;
5684;SDS011;2865;53.114;9.130;2022-07-23T10:59:03;1.50;;;0.70;;
5684;SDS011;2865;53.114;9.130;2022-07-23T11:01:36;2.03;;;0.70;;
5684;SDS011;2865;53.114;9.130;2022-07-23T11:04:00;1.47;;;0.93;;
5684;SDS011;2865;53.114;9.130;2022-07-23T11:07:06;1.43;;;0.90;;
5684;SDS011;2865;53.114;9.130;2022-07-23T11:12:31;1.67;;;1.03;;
5684;SDS011;2865;53.114;9.130;2022-07-23T11:14:57;1.57;;;1.17;;
5684;SDS011;2865;53.114;9.130;2022-07-23T11:16:48;4.70;;;1.13;;
5684;SDS011;2865;53.114;9.130;2022-07-23T11:19:13;1.10;;;1.00;;
5684;SDS011;2865;53.114;9.130;2022-07-23T11:21:41;1.20;;;0.87;;
5684;SDS011;2865;53.114;9.130;2022-07-23T11:24:10;1.57;;;1.47;;
5684;SDS011;2865;53.114;9.130;2022-07-23T11:26:46;2.00;;;1.10;;
5684;SDS011;2865;53.114;9.130;2022-07-23T11:31:59;2.13;;;1.10;;
5684;SDS011;2865;53.114;9.130;2022-07-23T11:34:27;1.20;;;0.80;;
5684;SDS011;2865;53.114;9.130;2022-07-23T11:36:49;2.30;;;1.00;;
5684;SDS011;2865;53.114;9.130;2022-07-23T11:39:15;1.53;;;0.83;;
5684;SDS011;2865;53.114;9.130;2022-07-23T11:41:43;1.20;;;1.10;;
5684;SDS011;2865;53.114;9.130;2022-07-23T11:44:23;1.13;;;0.70;;
5684;SDS011;2865;53.114;9.130;2022-07-23T11:46:33;5.03;;;1.00;;
5684;SDS011;2865;53.114;9.130;2022-07-23T11:49:01;1.57;;;0.97;;
5684;SDS011;2865;53.114;9.130;2022-07-23T11:51:26;2.70;;;0.90;;
5684;SDS011;2865;53.114;9.130;2022-07-23T11:53:51;1.20;;;1.10;;
5684;SDS011;2865;53.114;9.130;2022-07-23T11:56:17;1.37;;;1.00;;
5684;SDS011;2865;53.114;9.130;2022-07-23T11:58:53;1.07;;;0.90;;
5684;SDS011;2865;53.114;9.130;2022-07-23T12:01:07;0.97;;;0.67;;
5684;SDS011;2865;53.114;9.130;2022-07-23T12:03:33;0.80;;;0.80;;
5684;SDS011;2865;53.114;9.130;2022-07-23T12:05:59;1.30;;;1.00;;
5684;SDS011;2865;53.114;9.130;2022-07-23T12:08:23;2.10;;;1.23;;
5684;SDS011;2865;53.114;9.130;2022-07-23T12:10:49;0.90;;;0.90;;
5684;SDS011;2865;53.114;9.130;2022-07-23T12:13:15;1.10;;;1.00;;
5684;SDS011;2865;53.114;9.130;2022-07-23T12:15:41;1.27;;;0.97;;
5684;SDS011;2865;53.114;9.130;2022-07-23T12:18:06;1.37;;;1.20;;
5684;SDS011;2865;53.114;9.130;2022-07-23T12:20:32;2.50;;;1.20;;
5684;SDS011;2865;53.114;9.130;2022-07-23T12:22:56;0.97;;;0.87;;
5684;SDS011;2865;53.114;9.130;2022-07-23T12:25:22;6.53;;;1.00;;
5684;SDS011;2865;53.114;9.130;2022-07-23T12:27:46;0.83;;;0.70;;
5684;SDS011;2865;53.114;9.130;2022-07-23T12:30:20;0.90;;;0.77;;
5684;SDS011;2865;53.114;9.130;2022-07-23T12:32:49;1.77;;;0.80;;
5684;SDS011;2865;53.114;9.130;2022-07-23T12:35:14;0.90;;;0.80;;
5684;SDS011;2865;53.114;9.130;2022-07-23T12:37:40;2.40;;;0.80;;
5684;SDS011;2865;53.114;9.130;2022-07-23T12:42:42;1.00;;;0.90;;
5684;SDS011;2865;53.114;9.130;2022-07-23T12:45:08;2.10;;;0.90;;
5684;SDS011;2865;53.114;9.130;2022-07-23T12:50:30;0.80;;;0.80;;
5684;SDS011;2865;53.114;9.130;2022-07-23T12:52:37;1.57;;;1.10;;
5684;SDS011;2865;53.114;9.130;2022-07-23T12:55:02;1.00;;;0.73;;
5684;SDS011;2865;53.114;9.130;2022-07-23T12:57:44;1.53;;;1.00;;
5684;SDS011;2865;53.114;9.130;2022-07-23T13:00:07;1.00;;;0.90;;
5684;SDS011;2865;53.114;9.130;2022-07-23T13:02:44;1.20;;;1.00;;
5684;SDS011;2865;53.114;9.130;2022-07-23T13:05:14;1.97;;;1.13;;
5684;SDS011;2865;53.114;9.130;2022-07-23T13:07:39;2.83;;;0.87;;
5684;SDS011;2865;53.114;9.130;2022-07-23T13:10:05;0.80;;;0.70;;
5684;SDS011;2865;53.114;9.130;2022-07-23T13:12:30;1.07;;;0.97;;
5684;SDS011;2865;53.114;9.130;2022-07-23T13:14:56;1.37;;;1.07;;
5684;SDS011;2865;53.114;9.130;2022-07-23T13:17:21;1.20;;;0.87;;
5684;SDS011;2865;53.114;9.130;2022-07-23T13:19:46;1.40;;;1.00;;
5684;SDS011;2865;53.114;9.130;2022-07-23T13:22:12;1.23;;;0.90;;
5684;SDS011;2865;53.114;9.130;2022-07-23T13:24:37;0.70;;;0.70;;
5684;SDS011;2865;53.114;9.130;2022-07-23T13:27:02;1.80;;;1.57;;
5684;SDS011;2865;53.114;9.130;2022-07-23T13:29:28;1.33;;;1.10;;
5684;SDS011;2865;53.114;9.130;2022-07-23T13:31:53;0.87;;;0.80;;
5684;SDS011;2865;53.114;9.130;2022-07-23T13:34:18;1.37;;;0.90;;
5684;SDS011;2865;53.114;9.130;2022-07-23T13:36:44;1.20;;;0.80;;
5684;SDS011;2865;53.114;9.130;2022-07-23T13:39:09;0.80;;;0.80;;
5684;SDS011;2865;53.114;9.130;2022-07-23T13:41:35;1.67;;;0.90;;
5684;SDS011;2865;53.114;9.130;2022-07-23T13:44:00;1.13;;;0.73;;
5684;SDS011;2865;53.114;9.130;2022-07-23T13:46:25;0.70;;;0.70;;
5684;SDS011;2865;53.114;9.130;2022-07-23T13:48:50;1.17;;;0.73;;
5684;SDS011;2865;53.114;9.130;2022-07-23T13:51:16;2.10;;;1.20;;
5684;SDS011;2865;53.114;9.130;2022-07-23T13:53:41;1.13;;;1.00;;
5684;SDS011;2865;53.114;9.130;2022-07-23T13:56:06;0.80;;;0.80;;
5684;SDS011;2865;53.114;9.130;2022-07-23T13:58:32;2.53;;;0.90;;
5684;SDS011;2865;53.114;9.130;2022-07-23T14:00:57;4.70;;;0.90;;
5684;SDS011;2865;53.114;9.130;2022-07-23T14:03:23;1.43;;;1.10;;
5684;SDS011;2865;53.114;9.130;2022-07-23T14:05:48;1.30;;;0.90;;
5684;SDS011;2865;53.114;9.130;2022-07-23T14:08:13;9.03;;;1.30;;
5684;SDS011;2865;53.114;9.130;2022-07-23T14:10:39;3.57;;;0.83;;
5684;SDS011;2865;53.114;9.130;2022-07-23T14:13:04;2.97;;;1.00;;
5684;SDS011;2865;53.114;9.130;2022-07-23T14:15:30;0.80;;;0.80;;
5684;SDS011;2865;53.114;9.130;2022-07-23T14:17:55;0.80;;;0.80;;
5684;SDS011;2865;53.114;9.130;2022-07-23T14:20:20;1.90;;;0.80;;
5684;SDS011;2865;53.114;9.130;2022-07-23T14:22:45;1.47;;;0.80;;
5684;SDS011;2865;53.114;9.130;2022-07-23T14:25:11;1.87;;;0.97;;
5684;SDS011;2865;53.114;9.130;2022-07-23T14:27:36;2.17;;;0.80;;
5684;SDS011;2865;53.114;9.130;2022-07-23T14:30:03;1.13;;;1.00;;
5684;SDS011;2865;53.114;9.130;2022-07-23T14:32:29;1.83;;;0.80;;
5684;SDS011;2865;53.114;9.130;2022-07-23T14:34:55;1.90;;;0.90;;
5684;SDS011;2865;53.114;9.130;2022-07-23T14:37:20;0.80;;;0.80;;
5684;SDS011;2865;53.114;9.130;2022-07-23T14:39:45;3.33;;;0.87;;
5684;SDS011;2865;53.114;9.130;2022-07-23T14:42:11;2.67;;;0.90;;
5684;SDS011;2865;53.114;9.130;2022-07-23T14:44:36;1.20;;;0.80;;
5684;SDS011;2865;53.114;9.130;2022-07-23T14:47:02;2.00;;;1.20;;
5684;SDS011;2865;53.114;9.130;2022-07-23T14:49:27;1.93;;;0.90;;
5684;SDS011;2865;53.114;9.130;2022-07-23T14:51:52;5.07;;;1.10;;
5684;SDS011;2865;53.114;9.130;2022-07-23T14:54:17;1.37;;;1.10;;
5684;SDS011;2865;53.114;9.130;2022-07-23T14:56:43;1.07;;;0.97;;
5684;SDS011;2865;53.114;9.130;2022-07-23T14:59:08;2.20;;;0.70;;
5684;SDS011;2865;53.114;9.130;2022-07-23T15:01:34;0.93;;;0.80;;
5684;SDS011;2865;53.114;9.130;2022-07-23T15:03:59;2.20;;;0.90;;
5684;SDS011;2865;53.114;9.130;2022-07-23T15:06:24;1.63;;;1.20;;
5684;SDS011;2865;53.114;9.130;2022-07-23T15:08:50;1.77;;;0.90;;
5684;SDS011;2865;53.114;9.130;2022-07-23T15:11:15;4.00;;;1.00;;
5684;SDS011;2865;53.114;9.130;2022-07-23T15:13:40;1.97;;;1.20;;
5684;SDS011;2865;53.114;9.130;2022-07-23T15:16:06;0.80;;;0.73;;
5684;SDS011;2865;53.114;9.130;2022-07-23T15:18:31;1.30;;;1.20;;
5684;SDS011;2865;53.114;9.130;2022-07-23T15:20:56;0.80;;;0.80;;
5684;SDS011;2865;53.114;9.130;2022-07-23T15:23:22;2.00;;;1.00;;
5684;SDS011;2865;53.114;9.130;2022-07-23T15:25:47;3.33;;;1.20;;
5684;SDS011;2865;53.114;9.130;2022-07-23T15:28:13;1.30;;;1.00;;